sensor_id;sensor_type;location;lat;lon;timestamp;P1;durP1;ratioP1;P2;durP2;ratioP2
64029;SDS011;50277;52.064;4.492;2023-04-15T00:02:21;7.50;;;3.47;;
64029;SDS011;50277;52.064;4.492;2023-04-15T00:04:47;6.93;;;3.53;;
64029;SDS011;50277;52.064;4.492;2023-04-15T00:07:13;6.03;;;3.35;;
64029;SDS011;50277;52.064;4.492;2023-04-15T00:09:39;10.35;;;3.30;;
64029;SDS011;50277;52.064;4.492;2023-04-15T00:12:05;11.50;;;4.55;;
64029;SDS011;50277;52.064;4.492;2023-04-15T00:14:32;10.80;;;3.53;;
64029;SDS011;50277;52.064;4.492;2023-04-15T00:16:59;12.15;;;3.70;;
64029;SDS011;50277;52.064;4.492;2023-04-15T00:19:24;10.30;;;3.90;;
64029;SDS011;50277;52.064;4.492;2023-04-15T00:21:50;7.57;;;3.47;;
64029;SDS011;50277;52.064;4.492;2023-04-15T00:24:15;5.13;;;3.33;;
64029;SDS011;50277;52.064;4.492;2023-04-15T00:26:41;8.40;;;4.10;;
64029;SDS011;50277;52.064;4.492;2023-04-15T00:29:06;6.15;;;3.50;;
64029;SDS011;50277;52.064;4.492;2023-04-15T00:31:32;13.25;;;3.45;;
64029;SDS011;50277;52.064;4.492;2023-04-15T00:33:57;13.57;;;4.10;;
64029;SDS011;50277;52.064;4.492;2023-04-15T00:36:23;8.18;;;3.90;;
64029;SDS011;50277;52.064;4.492;2023-04-15T00:38:49;13.52;;;3.80;;
64029;SDS011;50277;52.064;4.492;2023-04-15T00:41:14;9.63;;;3.97;;
64029;SDS011;50277;52.064;4.492;2023-04-15T00:43:40;8.88;;;3.70;;
64029;SDS011;50277;52.064;4.492;2023-04-15T00:46:06;7.97;;;4.43;;
64029;SDS011;50277;52.064;4.492;2023-04-15T00:48:31;5.78;;;3.50;;
64029;SDS011;50277;52.064;4.492;2023-04-15T00:50:57;8.75;;;4.00;;
64029;SDS011;50277;52.064;4.492;2023-04-15T00:53:22;11.65;;;3.92;;
64029;SDS011;50277;52.064;4.492;2023-04-15T00:55:48;10.27;;;4.45;;
64029;SDS011;50277;52.064;4.492;2023-04-15T00:58:13;9.02;;;4.00;;
64029;SDS011;50277;52.064;4.492;2023-04-15T01:00:39;13.15;;;4.20;;
64029;SDS011;50277;52.064;4.492;2023-04-15T01:03:05;9.43;;;4.28;;
64029;SDS011;50277;52.064;4.492;2023-04-15T01:05:30;9.77;;;4.35;;
64029;SDS011;50277;52.064;4.492;2023-04-15T01:07:56;8.93;;;4.55;;
64029;SDS011;50277;52.064;4.492;2023-04-15T01:10:21;8.15;;;3.97;;
64029;SDS011;50277;52.064;4.492;2023-04-15T01:12:47;6.03;;;3.42;;
64029;SDS011;50277;52.064;4.492;2023-04-15T01:15:12;9.25;;;3.95;;
64029;SDS011;50277;52.064;4.492;2023-04-15T01:17:38;6.22;;;3.70;;
64029;SDS011;50277;52.064;4.492;2023-04-15T01:20:04;7.88;;;3.90;;
64029;SDS011;50277;52.064;4.492;2023-04-15T01:22:30;7.47;;;5.35;;
64029;SDS011;50277;52.064;4.492;2023-04-15T01:25:00;16.08;;;4.45;;
64029;SDS011;50277;52.064;4.492;2023-04-15T01:27:30;8.85;;;3.53;;
64029;SDS011;50277;52.064;4.492;2023-04-15T01:29:56;8.68;;;3.78;;
64029;SDS011;50277;52.064;4.492;2023-04-15T01:32:21;7.18;;;4.05;;
64029;SDS011;50277;52.064;4.492;2023-04-15T01:34:47;11.05;;;3.88;;
64029;SDS011;50277;52.064;4.492;2023-04-15T01:37:12;10.05;;;4.53;;
64029;SDS011;50277;52.064;4.492;2023-04-15T01:39:38;7.15;;;3.92;;
64029;SDS011;50277;52.064;4.492;2023-04-15T01:42:03;7.88;;;4.10;;
64029;SDS011;50277;52.064;4.492;2023-04-15T01:44:28;6.00;;;3.70;;
64029;SDS011;50277;52.064;4.492;2023-04-15T01:46:54;8.10;;;4.00;;
64029;SDS011;50277;52.064;4.492;2023-04-15T01:49:19;6.95;;;4.15;;
64029;SDS011;50277;52.064;4.492;2023-04-15T01:51:44;9.13;;;4.40;;
64029;SDS011;50277;52.064;4.492;2023-04-15T01:54:10;7.93;;;4.20;;
64029;SDS011;50277;52.064;4.492;2023-04-15T01:56:35;11.70;;;4.32;;
64029;SDS011;50277;52.064;4.492;2023-04-15T01:59:01;8.32;;;4.28;;
64029;SDS011;50277;52.064;4.492;2023-04-15T02:01:27;8.38;;;4.53;;
64029;SDS011;50277;52.064;4.492;2023-04-15T02:03:53;7.07;;;4.57;;
64029;SDS011;50277;52.064;4.492;2023-04-15T02:06:18;7.53;;;4.47;;
64029;SDS011;50277;52.064;4.492;2023-04-15T02:08:43;11.27;;;4.32;;
64029;SDS011;50277;52.064;4.492;2023-04-15T02:11:09;8.40;;;4.35;;
64029;SDS011;50277;52.064;4.492;2023-04-15T02:13:34;8.18;;;4.40;;
64029;SDS011;50277;52.064;4.492;2023-04-15T02:16:00;7.38;;;4.72;;
64029;SDS011;50277;52.064;4.492;2023-04-15T02:18:25;12.60;;;5.00;;
64029;SDS011;50277;52.064;4.492;2023-04-15T02:20:51;6.78;;;4.22;;
64029;SDS011;50277;52.064;4.492;2023-04-15T02:23:16;9.63;;;5.10;;
64029;SDS011;50277;52.064;4.492;2023-04-15T02:25:42;8.45;;;5.15;;
64029;SDS011;50277;52.064;4.492;2023-04-15T02:28:07;8.60;;;4.70;;
64029;SDS011;50277;52.064;4.492;2023-04-15T02:30:32;10.85;;;4.72;;
64029;SDS011;50277;52.064;4.492;2023-04-15T02:32:59;8.07;;;4.50;;
64029;SDS011;50277;52.064;4.492;2023-04-15T02:35:24;6.80;;;4.55;;
64029;SDS011;50277;52.064;4.492;2023-04-15T02:37:50;7.72;;;4.43;;
64029;SDS011;50277;52.064;4.492;2023-04-15T02:40:16;11.95;;;4.65;;
64029;SDS011;50277;52.064;4.492;2023-04-15T02:42:42;12.93;;;5.22;;
64029;SDS011;50277;52.064;4.492;2023-04-15T02:45:09;9.10;;;4.82;;
64029;SDS011;50277;52.064;4.492;2023-04-15T02:47:36;7.68;;;4.20;;
64029;SDS011;50277;52.064;4.492;2023-04-15T02:50:03;9.35;;;4.75;;
64029;SDS011;50277;52.064;4.492;2023-04-15T02:52:29;7.40;;;4.38;;
64029;SDS011;50277;52.064;4.492;2023-04-15T02:54:55;8.88;;;4.32;;
64029;SDS011;50277;52.064;4.492;2023-04-15T02:57:24;11.45;;;4.47;;
64029;SDS011;50277;52.064;4.492;2023-04-15T02:59:51;6.07;;;4.60;;
64029;SDS011;50277;52.064;4.492;2023-04-15T03:02:16;7.78;;;4.38;;
64029;SDS011;50277;52.064;4.492;2023-04-15T03:04:42;10.07;;;4.72;;
64029;SDS011;50277;52.064;4.492;2023-04-15T03:07:07;8.13;;;4.60;;
64029;SDS011;50277;52.064;4.492;2023-04-15T03:09:32;7.00;;;4.90;;
64029;SDS011;50277;52.064;4.492;2023-04-15T03:11:58;7.43;;;4.72;;
64029;SDS011;50277;52.064;4.492;2023-04-15T03:14:23;7.18;;;4.40;;
64029;SDS011;50277;52.064;4.492;2023-04-15T03:16:48;11.18;;;4.32;;
64029;SDS011;50277;52.064;4.492;2023-04-15T03:19:15;12.65;;;4.88;;
64029;SDS011;50277;52.064;4.492;2023-04-15T03:21:41;7.93;;;4.38;;
64029;SDS011;50277;52.064;4.492;2023-04-15T03:24:06;8.95;;;4.88;;
64029;SDS011;50277;52.064;4.492;2023-04-15T03:26:31;7.30;;;4.65;;
64029;SDS011;50277;52.064;4.492;2023-04-15T03:28:57;8.55;;;4.53;;
64029;SDS011;50277;52.064;4.492;2023-04-15T03:31:22;9.18;;;5.07;;
64029;SDS011;50277;52.064;4.492;2023-04-15T03:33:48;5.30;;;4.65;;
64029;SDS011;50277;52.064;4.492;2023-04-15T03:36:13;7.55;;;5.05;;
64029;SDS011;50277;52.064;4.492;2023-04-15T03:38:39;9.60;;;5.05;;
64029;SDS011;50277;52.064;4.492;2023-04-15T03:41:04;9.18;;;5.10;;
64029;SDS011;50277;52.064;4.492;2023-04-15T03:43:30;7.70;;;4.82;;
64029;SDS011;50277;52.064;4.492;2023-04-15T03:45:55;7.50;;;4.55;;
64029;SDS011;50277;52.064;4.492;2023-04-15T03:48:21;9.35;;;5.43;;
64029;SDS011;50277;52.064;4.492;2023-04-15T03:50:46;6.80;;;4.90;;
64029;SDS011;50277;52.064;4.492;2023-04-15T03:53:12;8.15;;;5.00;;
64029;SDS011;50277;52.064;4.492;2023-04-15T03:55:37;8.60;;;5.50;;
64029;SDS011;50277;52.064;4.492;2023-04-15T03:58:03;7.97;;;5.03;;
64029;SDS011;50277;52.064;4.492;2023-04-15T04:00:28;6.35;;;5.15;;
64029;SDS011;50277;52.064;4.492;2023-04-15T04:02:53;7.18;;;4.72;;
64029;SDS011;50277;52.064;4.492;2023-04-15T04:05:19;8.25;;;5.10;;
64029;SDS011;50277;52.064;4.492;2023-04-15T04:07:44;7.80;;;4.75;;
64029;SDS011;50277;52.064;4.492;2023-04-15T04:10:10;16.67;;;5.30;;
64029;SDS011;50277;52.064;4.492;2023-04-15T04:12:35;7.70;;;4.75;;
64029;SDS011;50277;52.064;4.492;2023-04-15T04:15:01;7.15;;;4.75;;
64029;SDS011;50277;52.064;4.492;2023-04-15T04:17:26;10.63;;;5.95;;
64029;SDS011;50277;52.064;4.492;2023-04-15T04:19:51;10.95;;;5.38;;
64029;SDS011;50277;52.064;4.492;2023-04-15T04:22:17;8.88;;;4.97;;
64029;SDS011;50277;52.064;4.492;2023-04-15T04:24:42;8.60;;;5.10;;
64029;SDS011;50277;52.064;4.492;2023-04-15T04:27:07;13.30;;;5.72;;
64029;SDS011;50277;52.064;4.492;2023-04-15T04:29:33;6.40;;;5.07;;
64029;SDS011;50277;52.064;4.492;2023-04-15T04:31:58;8.57;;;5.38;;
64029;SDS011;50277;52.064;4.492;2023-04-15T04:34:23;9.50;;;5.07;;
64029;SDS011;50277;52.064;4.492;2023-04-15T04:36:49;7.10;;;5.20;;
64029;SDS011;50277;52.064;4.492;2023-04-15T04:39:14;7.10;;;5.38;;
64029;SDS011;50277;52.064;4.492;2023-04-15T04:41:40;6.70;;;5.10;;
64029;SDS011;50277;52.064;4.492;2023-04-15T04:44:05;12.57;;;5.43;;
64029;SDS011;50277;52.064;4.492;2023-04-15T04:46:31;5.72;;;4.75;;
64029;SDS011;50277;52.064;4.492;2023-04-15T04:48:56;12.07;;;5.65;;
64029;SDS011;50277;52.064;4.492;2023-04-15T04:51:21;8.43;;;5.18;;
64029;SDS011;50277;52.064;4.492;2023-04-15T04:53:47;7.70;;;5.60;;
64029;SDS011;50277;52.064;4.492;2023-04-15T04:56:12;8.48;;;5.32;;
64029;SDS011;50277;52.064;4.492;2023-04-15T04:58:37;6.88;;;5.20;;
64029;SDS011;50277;52.064;4.492;2023-04-15T05:01:03;9.60;;;5.72;;
64029;SDS011;50277;52.064;4.492;2023-04-15T05:03:28;7.80;;;5.65;;
64029;SDS011;50277;52.064;4.492;2023-04-15T05:05:54;7.60;;;5.50;;
64029;SDS011;50277;52.064;4.492;2023-04-15T05:08:19;8.70;;;5.80;;
64029;SDS011;50277;52.064;4.492;2023-04-15T05:10:45;9.07;;;5.82;;
64029;SDS011;50277;52.064;4.492;2023-04-15T05:13:10;7.57;;;5.22;;
64029;SDS011;50277;52.064;4.492;2023-04-15T05:15:36;9.38;;;5.68;;
64029;SDS011;50277;52.064;4.492;2023-04-15T05:18:03;7.45;;;5.88;;
64029;SDS011;50277;52.064;4.492;2023-04-15T05:20:29;10.15;;;5.32;;
64029;SDS011;50277;52.064;4.492;2023-04-15T05:22:54;7.50;;;5.32;;
64029;SDS011;50277;52.064;4.492;2023-04-15T05:25:19;10.57;;;5.30;;
64029;SDS011;50277;52.064;4.492;2023-04-15T05:27:45;9.45;;;5.35;;
64029;SDS011;50277;52.064;4.492;2023-04-15T05:30:10;8.70;;;6.03;;
64029;SDS011;50277;52.064;4.492;2023-04-15T05:32:36;9.18;;;5.60;;
64029;SDS011;50277;52.064;4.492;2023-04-15T05:35:01;7.97;;;5.22;;
64029;SDS011;50277;52.064;4.492;2023-04-15T05:37:27;7.72;;;5.75;;
64029;SDS011;50277;52.064;4.492;2023-04-15T05:39:52;9.85;;;5.72;;
64029;SDS011;50277;52.064;4.492;2023-04-15T05:42:17;9.32;;;5.43;;
64029;SDS011;50277;52.064;4.492;2023-04-15T05:44:43;7.00;;;4.70;;
64029;SDS011;50277;52.064;4.492;2023-04-15T05:47:08;10.63;;;5.63;;
64029;SDS011;50277;52.064;4.492;2023-04-15T05:49:34;9.20;;;5.00;;
64029;SDS011;50277;52.064;4.492;2023-04-15T05:52:00;10.93;;;5.93;;
64029;SDS011;50277;52.064;4.492;2023-04-15T05:54:25;6.22;;;5.32;;
64029;SDS011;50277;52.064;4.492;2023-04-15T05:56:51;6.00;;;5.10;;
64029;SDS011;50277;52.064;4.492;2023-04-15T05:59:17;9.23;;;5.55;;
64029;SDS011;50277;52.064;4.492;2023-04-15T06:01:42;5.70;;;4.88;;
64029;SDS011;50277;52.064;4.492;2023-04-15T06:04:09;6.32;;;5.32;;
64029;SDS011;50277;52.064;4.492;2023-04-15T06:06:35;8.40;;;5.45;;
64029;SDS011;50277;52.064;4.492;2023-04-15T06:09:01;12.30;;;6.03;;
64029;SDS011;50277;52.064;4.492;2023-04-15T06:11:26;9.85;;;6.45;;
64029;SDS011;50277;52.064;4.492;2023-04-15T06:13:51;9.07;;;6.00;;
64029;SDS011;50277;52.064;4.492;2023-04-15T06:16:17;10.10;;;6.50;;
64029;SDS011;50277;52.064;4.492;2023-04-15T06:18:42;10.57;;;5.50;;
64029;SDS011;50277;52.064;4.492;2023-04-15T06:21:07;8.90;;;6.45;;
64029;SDS011;50277;52.064;4.492;2023-04-15T06:23:33;8.50;;;5.90;;
64029;SDS011;50277;52.064;4.492;2023-04-15T06:26:00;8.25;;;5.63;;
64029;SDS011;50277;52.064;4.492;2023-04-15T06:28:25;7.20;;;5.35;;
64029;SDS011;50277;52.064;4.492;2023-04-15T06:30:51;7.78;;;5.97;;
64029;SDS011;50277;52.064;4.492;2023-04-15T06:33:17;7.25;;;5.30;;
64029;SDS011;50277;52.064;4.492;2023-04-15T06:35:42;6.22;;;5.15;;
64029;SDS011;50277;52.064;4.492;2023-04-15T06:38:07;8.52;;;6.13;;
64029;SDS011;50277;52.064;4.492;2023-04-15T06:40:33;10.98;;;6.30;;
64029;SDS011;50277;52.064;4.492;2023-04-15T06:42:58;9.00;;;5.53;;
64029;SDS011;50277;52.064;4.492;2023-04-15T06:45:23;7.65;;;5.75;;
64029;SDS011;50277;52.064;4.492;2023-04-15T06:47:49;8.15;;;5.65;;
64029;SDS011;50277;52.064;4.492;2023-04-15T06:50:15;7.95;;;5.32;;
64029;SDS011;50277;52.064;4.492;2023-04-15T06:52:40;7.03;;;5.10;;
64029;SDS011;50277;52.064;4.492;2023-04-15T06:55:06;9.95;;;6.13;;
64029;SDS011;50277;52.064;4.492;2023-04-15T06:57:32;7.68;;;5.28;;
64029;SDS011;50277;52.064;4.492;2023-04-15T06:59:57;10.13;;;5.53;;
64029;SDS011;50277;52.064;4.492;2023-04-15T07:02:22;11.57;;;6.00;;
64029;SDS011;50277;52.064;4.492;2023-04-15T07:04:48;8.02;;;6.00;;
64029;SDS011;50277;52.064;4.492;2023-04-15T07:07:13;6.15;;;5.55;;
64029;SDS011;50277;52.064;4.492;2023-04-15T07:09:39;6.50;;;5.00;;
64029;SDS011;50277;52.064;4.492;2023-04-15T07:12:05;7.97;;;5.30;;
64029;SDS011;50277;52.064;4.492;2023-04-15T07:14:31;6.57;;;5.57;;
64029;SDS011;50277;52.064;4.492;2023-04-15T07:16:56;5.88;;;5.28;;
64029;SDS011;50277;52.064;4.492;2023-04-15T07:19:21;6.05;;;5.07;;
64029;SDS011;50277;52.064;4.492;2023-04-15T07:21:47;6.97;;;5.38;;
64029;SDS011;50277;52.064;4.492;2023-04-15T07:24:13;7.13;;;5.68;;
64029;SDS011;50277;52.064;4.492;2023-04-15T07:26:42;6.63;;;5.53;;
64029;SDS011;50277;52.064;4.492;2023-04-15T07:29:08;7.55;;;5.80;;
64029;SDS011;50277;52.064;4.492;2023-04-15T07:31:33;6.07;;;5.30;;
64029;SDS011;50277;52.064;4.492;2023-04-15T07:34:00;6.30;;;5.28;;
64029;SDS011;50277;52.064;4.492;2023-04-15T07:36:26;7.30;;;5.13;;
64029;SDS011;50277;52.064;4.492;2023-04-15T07:38:53;6.05;;;4.68;;
64029;SDS011;50277;52.064;4.492;2023-04-15T07:41:19;7.88;;;5.25;;
64029;SDS011;50277;52.064;4.492;2023-04-15T07:43:45;6.53;;;5.43;;
64029;SDS011;50277;52.064;4.492;2023-04-15T07:46:10;6.07;;;5.47;;
64029;SDS011;50277;52.064;4.492;2023-04-15T07:48:36;6.95;;;5.78;;
64029;SDS011;50277;52.064;4.492;2023-04-15T07:51:01;8.27;;;5.10;;
64029;SDS011;50277;52.064;4.492;2023-04-15T07:53:27;6.32;;;5.38;;
64029;SDS011;50277;52.064;4.492;2023-04-15T07:55:52;5.68;;;5.18;;
64029;SDS011;50277;52.064;4.492;2023-04-15T07:58:18;6.88;;;5.28;;
64029;SDS011;50277;52.064;4.492;2023-04-15T08:00:43;6.28;;;5.68;;
64029;SDS011;50277;52.064;4.492;2023-04-15T08:03:08;7.15;;;4.57;;
64029;SDS011;50277;52.064;4.492;2023-04-15T08:05:34;6.55;;;5.47;;
64029;SDS011;50277;52.064;4.492;2023-04-15T08:07:59;5.13;;;4.63;;
64029;SDS011;50277;52.064;4.492;2023-04-15T08:10:25;7.10;;;5.70;;
64029;SDS011;50277;52.064;4.492;2023-04-15T08:12:51;8.77;;;5.80;;
64029;SDS011;50277;52.064;4.492;2023-04-15T08:15:18;5.68;;;5.10;;
64029;SDS011;50277;52.064;4.492;2023-04-15T08:17:44;5.75;;;5.22;;
64029;SDS011;50277;52.064;4.492;2023-04-15T08:20:10;6.03;;;5.25;;
64029;SDS011;50277;52.064;4.492;2023-04-15T08:22:37;6.60;;;5.22;;
64029;SDS011;50277;52.064;4.492;2023-04-15T08:25:02;5.05;;;4.30;;
64029;SDS011;50277;52.064;4.492;2023-04-15T08:27:28;5.68;;;4.53;;
64029;SDS011;50277;52.064;4.492;2023-04-15T08:29:53;5.47;;;4.97;;
64029;SDS011;50277;52.064;4.492;2023-04-15T08:32:18;6.20;;;5.18;;
64029;SDS011;50277;52.064;4.492;2023-04-15T08:34:44;5.32;;;4.20;;
64029;SDS011;50277;52.064;4.492;2023-04-15T08:37:09;6.90;;;5.30;;
64029;SDS011;50277;52.064;4.492;2023-04-15T08:39:34;7.28;;;4.50;;
64029;SDS011;50277;52.064;4.492;2023-04-15T08:42:00;4.50;;;4.18;;
64029;SDS011;50277;52.064;4.492;2023-04-15T08:44:31;4.20;;;3.80;;
64029;SDS011;50277;52.064;4.492;2023-04-15T08:47:02;4.53;;;4.13;;
64029;SDS011;50277;52.064;4.492;2023-04-15T08:49:29;4.75;;;4.32;;
64029;SDS011;50277;52.064;4.492;2023-04-15T08:51:59;5.57;;;4.63;;
64029;SDS011;50277;52.064;4.492;2023-04-15T08:54:25;5.63;;;5.22;;
64029;SDS011;50277;52.064;4.492;2023-04-15T08:56:51;8.45;;;5.78;;
64029;SDS011;50277;52.064;4.492;2023-04-15T08:59:16;6.07;;;5.40;;
64029;SDS011;50277;52.064;4.492;2023-04-15T09:01:42;6.22;;;4.63;;
64029;SDS011;50277;52.064;4.492;2023-04-15T09:04:07;4.93;;;4.45;;
64029;SDS011;50277;52.064;4.492;2023-04-15T09:06:33;6.47;;;4.88;;
64029;SDS011;50277;52.064;4.492;2023-04-15T09:08:58;8.23;;;5.45;;
64029;SDS011;50277;52.064;4.492;2023-04-15T09:11:23;8.35;;;5.00;;
64029;SDS011;50277;52.064;4.492;2023-04-15T09:13:49;6.10;;;4.95;;
64029;SDS011;50277;52.064;4.492;2023-04-15T09:16:15;5.68;;;4.90;;
64029;SDS011;50277;52.064;4.492;2023-04-15T09:18:41;5.70;;;4.80;;
64029;SDS011;50277;52.064;4.492;2023-04-15T09:21:06;5.65;;;5.10;;
64029;SDS011;50277;52.064;4.492;2023-04-15T09:23:35;5.35;;;4.78;;
64029;SDS011;50277;52.064;4.492;2023-04-15T09:26:02;6.38;;;5.20;;
64029;SDS011;50277;52.064;4.492;2023-04-15T09:28:28;5.38;;;4.30;;
64029;SDS011;50277;52.064;4.492;2023-04-15T09:30:57;7.75;;;3.72;;
64029;SDS011;50277;52.064;4.492;2023-04-15T09:33:23;6.28;;;4.57;;
64029;SDS011;50277;52.064;4.492;2023-04-15T09:36:01;5.93;;;4.32;;
64029;SDS011;50277;52.064;4.492;2023-04-15T09:38:28;5.78;;;4.15;;
64029;SDS011;50277;52.064;4.492;2023-04-15T09:40:54;6.32;;;4.15;;
64029;SDS011;50277;52.064;4.492;2023-04-15T09:43:20;4.28;;;3.70;;
64029;SDS011;50277;52.064;4.492;2023-04-15T09:45:50;4.30;;;3.38;;
64029;SDS011;50277;52.064;4.492;2023-04-15T09:48:18;4.22;;;3.00;;
64029;SDS011;50277;52.064;4.492;2023-04-15T09:50:53;3.22;;;2.63;;
64029;SDS011;50277;52.064;4.492;2023-04-15T09:53:22;3.50;;;3.00;;
64029;SDS011;50277;52.064;4.492;2023-04-15T09:55:49;3.65;;;2.78;;
64029;SDS011;50277;52.064;4.492;2023-04-15T09:58:28;4.17;;;2.47;;
64029;SDS011;50277;52.064;4.492;2023-04-15T10:00:55;3.28;;;2.20;;
64029;SDS011;50277;52.064;4.492;2023-04-15T10:03:22;5.27;;;2.50;;
64029;SDS011;50277;52.064;4.492;2023-04-15T10:05:52;4.63;;;3.03;;
64029;SDS011;50277;52.064;4.492;2023-04-15T10:08:18;8.10;;;2.10;;
64029;SDS011;50277;52.064;4.492;2023-04-15T10:10:46;2.28;;;2.08;;
64029;SDS011;50277;52.064;4.492;2023-04-15T10:13:13;2.65;;;2.42;;
64029;SDS011;50277;52.064;4.492;2023-04-15T10:15:39;2.60;;;1.85;;
64029;SDS011;50277;52.064;4.492;2023-04-15T10:18:07;2.28;;;2.08;;
64029;SDS011;50277;52.064;4.492;2023-04-15T10:20:33;2.20;;;1.80;;
64029;SDS011;50277;52.064;4.492;2023-04-15T10:23:00;3.60;;;2.10;;
64029;SDS011;50277;52.064;4.492;2023-04-15T10:25:26;3.63;;;2.22;;
64029;SDS011;50277;52.064;4.492;2023-04-15T10:27:52;6.00;;;2.90;;
64029;SDS011;50277;52.064;4.492;2023-04-15T10:30:18;4.85;;;2.28;;
64029;SDS011;50277;52.064;4.492;2023-04-15T10:32:43;3.13;;;2.50;;
64029;SDS011;50277;52.064;4.492;2023-04-15T10:35:09;3.88;;;2.13;;
64029;SDS011;50277;52.064;4.492;2023-04-15T10:37:36;4.68;;;2.10;;
64029;SDS011;50277;52.064;4.492;2023-04-15T10:42:51;16.30;;;3.00;;
64029;SDS011;50277;52.064;4.492;2023-04-15T10:45:18;3.17;;;2.13;;
64029;SDS011;50277;52.064;4.492;2023-04-15T10:47:43;2.58;;;2.03;;
64029;SDS011;50277;52.064;4.492;2023-04-15T10:50:08;3.63;;;1.88;;
64029;SDS011;50277;52.064;4.492;2023-04-15T10:52:34;3.47;;;2.63;;
64029;SDS011;50277;52.064;4.492;2023-04-15T10:55:14;3.03;;;2.50;;
64029;SDS011;50277;52.064;4.492;2023-04-15T10:57:42;3.50;;;2.28;;
64029;SDS011;50277;52.064;4.492;2023-04-15T11:26:55;3.67;;;2.00;;
64029;SDS011;50277;52.064;4.492;2023-04-15T11:29:21;2.35;;;2.05;;
64029;SDS011;50277;52.064;4.492;2023-04-15T11:31:47;2.13;;;1.95;;
64029;SDS011;50277;52.064;4.492;2023-04-15T11:34:19;2.47;;;2.25;;
64029;SDS011;50277;52.064;4.492;2023-04-15T11:36:46;3.00;;;2.15;;
64029;SDS011;50277;52.064;4.492;2023-04-15T11:39:12;2.30;;;2.10;;
64029;SDS011;50277;52.064;4.492;2023-04-15T11:41:40;3.22;;;2.10;;
64029;SDS011;50277;52.064;4.492;2023-04-15T11:44:15;6.60;;;2.00;;
64029;SDS011;50277;52.064;4.492;2023-04-15T11:46:40;5.03;;;2.38;;
64029;SDS011;50277;52.064;4.492;2023-04-15T11:49:06;3.28;;;2.75;;
64029;SDS011;50277;52.064;4.492;2023-04-15T11:51:32;3.13;;;2.38;;
64029;SDS011;50277;52.064;4.492;2023-04-15T11:53:58;3.67;;;2.72;;
64029;SDS011;50277;52.064;4.492;2023-04-15T11:56:23;2.85;;;2.33;;
64029;SDS011;50277;52.064;4.492;2023-04-15T11:58:56;7.10;;;2.97;;
64029;SDS011;50277;52.064;4.492;2023-04-15T12:01:30;4.53;;;2.60;;
64029;SDS011;50277;52.064;4.492;2023-04-15T12:04:09;4.88;;;2.60;;
64029;SDS011;50277;52.064;4.492;2023-04-15T12:06:38;7.10;;;2.70;;
64029;SDS011;50277;52.064;4.492;2023-04-15T12:09:07;3.92;;;2.38;;
64029;SDS011;50277;52.064;4.492;2023-04-15T12:11:35;4.38;;;2.40;;
64029;SDS011;50277;52.064;4.492;2023-04-15T12:14:05;4.40;;;2.30;;
64029;SDS011;50277;52.064;4.492;2023-04-15T12:16:36;4.60;;;2.25;;
64029;SDS011;50277;52.064;4.492;2023-04-15T12:19:08;4.00;;;2.13;;
64029;SDS011;50277;52.064;4.492;2023-04-15T12:21:35;4.43;;;2.60;;
64029;SDS011;50277;52.064;4.492;2023-04-15T12:24:03;3.58;;;1.83;;
64029;SDS011;50277;52.064;4.492;2023-04-15T12:26:32;2.90;;;2.50;;
64029;SDS011;50277;52.064;4.492;2023-04-15T12:29:00;2.65;;;1.85;;
64029;SDS011;50277;52.064;4.492;2023-04-15T12:31:29;2.55;;;1.70;;
64029;SDS011;50277;52.064;4.492;2023-04-15T12:33:55;3.63;;;1.90;;
64029;SDS011;50277;52.064;4.492;2023-04-15T12:36:22;4.30;;;1.90;;
64029;SDS011;50277;52.064;4.492;2023-04-15T12:38:47;4.20;;;2.10;;
64029;SDS011;50277;52.064;4.492;2023-04-15T12:41:13;4.32;;;2.10;;
64029;SDS011;50277;52.064;4.492;2023-04-15T12:43:38;6.28;;;2.65;;
64029;SDS011;50277;52.064;4.492;2023-04-15T12:46:04;5.43;;;2.47;;
64029;SDS011;50277;52.064;4.492;2023-04-15T12:48:29;4.78;;;2.70;;
64029;SDS011;50277;52.064;4.492;2023-04-15T12:50:54;6.97;;;3.35;;
64029;SDS011;50277;52.064;4.492;2023-04-15T12:53:20;6.88;;;3.42;;
64029;SDS011;50277;52.064;4.492;2023-04-15T12:55:45;10.68;;;3.10;;
64029;SDS011;50277;52.064;4.492;2023-04-15T12:58:11;5.10;;;2.70;;
64029;SDS011;50277;52.064;4.492;2023-04-15T13:00:36;6.40;;;2.90;;
64029;SDS011;50277;52.064;4.492;2023-04-15T13:03:02;3.10;;;2.53;;
64029;SDS011;50277;52.064;4.492;2023-04-15T13:05:27;5.30;;;2.38;;
64029;SDS011;50277;52.064;4.492;2023-04-15T13:07:53;5.32;;;2.65;;
64029;SDS011;50277;52.064;4.492;2023-04-15T13:10:18;6.03;;;2.55;;
64029;SDS011;50277;52.064;4.492;2023-04-15T13:12:44;7.97;;;2.55;;
64029;SDS011;50277;52.064;4.492;2023-04-15T13:15:11;7.75;;;2.55;;
64029;SDS011;50277;52.064;4.492;2023-04-15T13:17:37;6.55;;;2.05;;
64029;SDS011;50277;52.064;4.492;2023-04-15T13:20:02;6.20;;;2.83;;
64029;SDS011;50277;52.064;4.492;2023-04-15T13:22:28;7.97;;;2.88;;
64029;SDS011;50277;52.064;4.492;2023-04-15T13:24:53;4.50;;;3.10;;
64029;SDS011;50277;52.064;4.492;2023-04-15T13:27:18;7.07;;;3.35;;
64029;SDS011;50277;52.064;4.492;2023-04-15T13:29:44;5.90;;;2.25;;
64029;SDS011;50277;52.064;4.492;2023-04-15T13:32:09;4.18;;;2.67;;
64029;SDS011;50277;52.064;4.492;2023-04-15T13:34:35;5.97;;;2.90;;
64029;SDS011;50277;52.064;4.492;2023-04-15T13:37:06;13.77;;;3.13;;
64029;SDS011;50277;52.064;4.492;2023-04-15T13:39:32;4.78;;;2.47;;
64029;SDS011;50277;52.064;4.492;2023-04-15T13:41:57;9.02;;;2.80;;
64029;SDS011;50277;52.064;4.492;2023-04-15T13:44:22;4.88;;;2.33;;
64029;SDS011;50277;52.064;4.492;2023-04-15T13:46:48;3.67;;;2.47;;
64029;SDS011;50277;52.064;4.492;2023-04-15T13:49:13;11.02;;;3.67;;
64029;SDS011;50277;52.064;4.492;2023-04-15T13:51:38;5.80;;;2.85;;
64029;SDS011;50277;52.064;4.492;2023-04-15T13:54:04;7.40;;;3.17;;
64029;SDS011;50277;52.064;4.492;2023-04-15T13:56:30;8.05;;;2.72;;
64029;SDS011;50277;52.064;4.492;2023-04-15T13:58:55;7.10;;;2.75;;
64029;SDS011;50277;52.064;4.492;2023-04-15T14:01:23;8.73;;;2.92;;
64029;SDS011;50277;52.064;4.492;2023-04-15T14:03:48;8.85;;;2.60;;
64029;SDS011;50277;52.064;4.492;2023-04-15T14:06:14;6.60;;;2.78;;
64029;SDS011;50277;52.064;4.492;2023-04-15T14:08:39;8.07;;;3.08;;
64029;SDS011;50277;52.064;4.492;2023-04-15T14:11:05;6.93;;;2.55;;
64029;SDS011;50277;52.064;4.492;2023-04-15T14:13:30;4.85;;;2.42;;
64029;SDS011;50277;52.064;4.492;2023-04-15T14:15:55;7.05;;;3.10;;
64029;SDS011;50277;52.064;4.492;2023-04-15T14:18:21;10.30;;;3.53;;
64029;SDS011;50277;52.064;4.492;2023-04-15T14:20:46;7.63;;;3.22;;
64029;SDS011;50277;52.064;4.492;2023-04-15T14:23:12;6.40;;;2.65;;
64029;SDS011;50277;52.064;4.492;2023-04-15T14:25:37;7.85;;;2.50;;
64029;SDS011;50277;52.064;4.492;2023-04-15T14:28:03;8.07;;;2.42;;
64029;SDS011;50277;52.064;4.492;2023-04-15T14:30:28;7.28;;;2.50;;
64029;SDS011;50277;52.064;4.492;2023-04-15T14:32:54;3.55;;;2.53;;
64029;SDS011;50277;52.064;4.492;2023-04-15T14:35:19;8.52;;;2.70;;
64029;SDS011;50277;52.064;4.492;2023-04-15T14:37:44;11.88;;;3.33;;
64029;SDS011;50277;52.064;4.492;2023-04-15T14:40:10;6.80;;;2.58;;
64029;SDS011;50277;52.064;4.492;2023-04-15T14:42:35;8.57;;;2.30;;
64029;SDS011;50277;52.064;4.492;2023-04-15T14:45:01;11.65;;;3.70;;
64029;SDS011;50277;52.064;4.492;2023-04-15T14:47:26;9.55;;;2.97;;
64029;SDS011;50277;52.064;4.492;2023-04-15T14:49:51;5.10;;;2.58;;
64029;SDS011;50277;52.064;4.492;2023-04-15T14:52:16;8.73;;;3.22;;
64029;SDS011;50277;52.064;4.492;2023-04-15T14:54:42;9.55;;;3.65;;
64029;SDS011;50277;52.064;4.492;2023-04-15T14:57:07;6.35;;;3.25;;
64029;SDS011;50277;52.064;4.492;2023-04-15T14:59:33;12.35;;;3.30;;
64029;SDS011;50277;52.064;4.492;2023-04-15T15:01:58;5.45;;;2.65;;
64029;SDS011;50277;52.064;4.492;2023-04-15T15:04:23;7.20;;;2.78;;
64029;SDS011;50277;52.064;4.492;2023-04-15T15:06:49;7.88;;;2.47;;
64029;SDS011;50277;52.064;4.492;2023-04-15T15:09:14;5.50;;;2.42;;